Columbus, Ohio
Traffic Map
Current Weather Conditions
Columbus, Ohio
Overcast
Overcast
75°
Feels Like: 75°
Wind Chill: 75° Ceiling: 4700
Heat Index: 75° Visibility: 10mi
Dew Point: 64° Wind: 10mph
Humidity: 69% Direction: 310° (NW)
Pressure: 30.06in Gusts: 0mph
Raw Report DataKCMH 220251Z 31009KT 10SM BKN047 OVC200 24/18 A3006 RMK AO2 SLP173 T02390178 52031
Traffic Incident Summary
Active as of:
Severity:
Category:
InformationThere was an issue retrieving the traffic information for this location. Please try a different location or try again shortly.
Advertisements